Time;durP1;ratioP1;P1;durP2;ratioP2;P2;SDS_P1;SDS_P2;PMS_P1;PMS_P2;Temp;Humidity;BMP_temperature;BMP_pressure;BME280_temperature;BME280_humidity;BME280_pressure;Samples;Min_cycle;Max_cycle;Signal;HPM_P1;HPM_P2
2023/05/20 00:00:09;;;;;;;4.18;1.15;;;;;;;-146.25;72.46;52112.72;2087575;28;34435;-61
2023/05/20 00:01:12;;;;;;;5.03;1.42;;;;;;;-146.25;71.88;52092.44;2088338;28;20037;-61
2023/05/20 00:02:15;;;;;;;4.75;1.42;;;;;;;-146.25;72.23;52092.44;2088157;28;32041;-60
2023/05/20 00:03:21;;;;;;;9.95;0.93;;;;;;;-146.25;72.00;52120.84;2087483;28;35735;-61
2023/05/20 00:04:25;;;;;;;6.13;1.38;;;;;;;-146.25;72.24;52092.44;2088383;28;20045;-61
2023/05/20 00:05:27;;;;;;;3.47;0.98;;;;;;;-146.25;72.93;52055.97;2087805;28;35369;-60
2023/05/20 00:06:28;;;;;;;5.13;1.20;;;;;;;-146.25;72.37;52110.69;2087760;28;34115;-60
2023/05/20 00:07:32;;;;;;;6.20;1.00;;;;;;;-146.25;72.24;52076.22;2088527;28;20139;-60
2023/05/20 00:08:34;;;;;;;7.00;1.00;;;;;;;-146.25;72.08;52120.84;2087516;28;34225;-60
2023/05/20 00:09:38;;;;;;;3.88;1.02;;;;;;;-146.25;72.23;52100.56;2087308;28;35351;-60
2023/05/20 00:10:40;;;;;;;1.80;0.75;;;;;;;-146.25;72.24;52080.28;2087623;28;33557;-60
2023/05/20 00:11:42;;;;;;;4.88;1.50;;;;;;;-146.25;72.22;52094.47;2087416;28;38496;-60
2023/05/20 00:12:44;;;;;;;4.75;0.98;;;;;;;-146.25;71.98;52092.44;2087653;28;34247;-60
2023/05/20 00:13:46;;;;;;;4.13;1.10;;;;;;;-146.25;72.41;52100.56;2088543;28;33471;-60
2023/05/20 00:14:48;;;;;;;3.53;1.08;;;;;;;-146.25;71.97;52068.13;2089146;28;35582;-60
2023/05/20 00:15:52;;;;;;;3.95;1.45;;;;;;;-146.25;72.13;52062.03;2089173;28;35110;-61
2023/05/20 00:16:56;;;;;;;3.78;1.05;;;;;;;-146.25;71.89;52108.66;2089390;28;30965;-60
2023/05/20 00:18:00;;;;;;;4.07;1.23;;;;;;;-146.25;72.16;52060.00;2089508;28;33733;-60
2023/05/20 00:19:02;;;;;;;5.38;1.38;;;;;;;-146.25;72.00;52060.00;2089001;28;33069;-60
2023/05/20 00:20:05;;;;;;;5.20;1.52;;;;;;;-146.25;71.89;52110.69;2088841;28;34189;-61
2023/05/20 00:21:07;;;;;;;4.50;0.80;;;;;;;-146.25;71.59;52114.75;2089246;28;20036;-60
2023/05/20 00:22:09;;;;;;;2.90;0.90;;;;;;;-146.25;71.61;52096.50;2089010;28;38143;-61
2023/05/20 00:23:11;;;;;;;3.25;0.90;;;;;;;-146.25;71.64;52110.69;2088859;28;31792;-60
2023/05/20 00:24:13;;;;;;;3.95;0.98;;;;;;;-146.25;71.87;52090.44;2089685;28;35337;-61
2023/05/20 00:25:15;;;;;;;4.00;0.90;;;;;;;-146.25;72.21;52126.91;2089148;28;35415;-60
2023/05/20 00:26:16;;;;;;;4.05;0.90;;;;;;;-146.25;72.28;52110.69;2089390;28;29986;-60
2023/05/20 00:27:26;;;;;;;5.75;0.93;;;;;;;-146.25;71.97;52116.78;2089597;28;20143;-60
2023/05/20 00:28:27;;;;;;;2.75;1.00;;;;;;;-146.25;71.68;52102.59;2090113;28;20262;-61
2023/05/20 00:29:29;;;;;;;3.22;0.85;;;;;;;-146.25;71.81;52088.41;2088972;28;30254;-60
2023/05/20 00:30:31;;;;;;;2.65;0.80;;;;;;;-146.25;71.79;52110.69;2089188;28;20046;-60
2023/05/20 00:31:35;;;;;;;4.53;0.82;;;;;;;-146.25;71.89;52092.44;2088225;28;20120;-61
2023/05/20 00:32:37;;;;;;;5.03;1.13;;;;;;;-146.25;71.95;52106.66;2080268;28;33881;-61
2023/05/20 00:33:40;;;;;;;7.22;0.93;;;;;;;-146.25;71.74;52104.63;2081206;28;20050;-61
2023/05/20 00:34:43;;;;;;;4.45;0.95;;;;;;;-146.25;71.72;52076.22;2089842;28;20883;-61
2023/05/20 00:35:44;;;;;;;7.22;1.20;;;;;;;-146.25;71.66;52082.31;2088634;28;23202;-61
2023/05/20 00:36:46;;;;;;;2.80;1.00;;;;;;;-146.25;71.65;52041.75;2088497;28;24506;-60
2023/05/20 00:37:48;;;;;;;4.65;0.95;;;;;;;-146.25;71.39;52114.75;2080568;28;24045;-61
2023/05/20 00:38:50;;;;;;;5.05;1.27;;;;;;;-146.25;71.26;52058.00;2116552;22;25231;-71
2023/05/20 00:39:52;;;;;;;5.50;1.25;;;;;;;-146.25;71.60;52094.47;2099098;28;28624;-70
2023/05/20 00:40:53;;;;;;;2.58;0.70;;;;;;;-146.25;71.37;52090.44;2089039;28;20902;-70
2023/05/20 00:41:59;;;;;;;2.80;0.90;;;;;;;-146.25;71.84;52055.97;2088901;28;20049;-70
2023/05/20 00:43:00;;;;;;;3.97;0.80;;;;;;;-146.25;71.50;52090.44;2106096;28;25996;-68
2023/05/20 00:44:02;;;;;;;4.13;0.90;;;;;;;-146.25;71.52;52090.44;2105633;28;34004;-71
2023/05/20 00:45:05;;;;;;;5.53;1.23;;;;;;;-146.25;71.01;52072.19;2106701;28;20025;-70
2023/05/20 00:46:09;;;;;;;5.43;0.80;;;;;;;-146.25;71.01;52082.31;2105543;28;26540;-70
2023/05/20 00:47:12;;;;;;;3.88;0.70;;;;;;;-146.25;71.10;52092.44;2106500;28;20810;-70
2023/05/20 00:48:14;;;;;;;4.72;0.82;;;;;;;-146.25;70.86;52108.66;2097031;28;20042;-70
2023/05/20 00:49:16;;;;;;;2.47;1.00;;;;;;;-146.25;70.68;52098.53;2096825;28;30985;-70
2023/05/20 00:50:18;;;;;;;4.88;0.90;;;;;;;-146.25;70.91;52076.22;2080225;28;26769;-70
2023/05/20 00:51:20;;;;;;;4.88;0.98;;;;;;;-146.25;70.64;52078.25;2081069;28;20892;-70
2023/05/20 00:52:23;;;;;;;1.52;0.60;;;;;;;-146.25;70.71;52068.13;2096961;28;20903;-71
2023/05/20 00:53:25;;;;;;;2.28;0.73;;;;;;;-146.25;70.60;52108.66;2106042;28;27018;-71
2023/05/20 00:54:27;;;;;;;3.33;0.88;;;;;;;-146.25;70.68;52092.44;2088589;28;20201;-70
2023/05/20 00:55:29;;;;;;;2.58;0.80;;;;;;;-146.25;70.57;52120.84;2089593;28;20164;-71
2023/05/20 00:56:31;;;;;;;2.92;0.80;;;;;;;-146.25;70.18;52092.44;2087831;28;29509;-70
2023/05/20 00:57:33;;;;;;;3.58;0.70;;;;;;;-146.25;70.21;52090.44;2089723;28;26638;-70
2023/05/20 00:58:36;;;;;;;2.42;0.55;;;;;;;-146.25;70.40;52100.56;2105578;28;20097;-70
2023/05/20 00:59:39;;;;;;;2.92;0.85;;;;;;;-146.25;69.28;52058.00;2088955;28;20099;-70
2023/05/20 01:00:42;;;;;;;3.25;0.60;;;;;;;-146.25;69.28;52045.81;2088768;28;32120;-70
2023/05/20 01:01:44;;;;;;;3.80;0.70;;;;;;;-146.25;69.62;52098.53;2106173;28;20948;-70
2023/05/20 01:02:48;;;;;;;2.53;0.98;;;;;;;-146.25;69.11;52072.19;2106241;28;20044;-71
2023/05/20 01:03:51;;;;;;;2.55;0.73;;;;;;;-146.25;68.82;52074.22;2105950;28;30773;-70
2023/05/20 01:04:55;;;;;;;2.75;0.50;;;;;;;-146.25;68.87;52106.66;2106152;28;20954;-70
2023/05/20 01:05:57;;;;;;;2.58;0.50;;;;;;;-146.25;68.17;52068.13;2096288;28;35801;-70
2023/05/20 01:07:03;;;;;;;3.47;0.70;;;;;;;-146.25;68.42;52076.22;2096673;28;28708;-70
2023/05/20 01:08:05;;;;;;;2.72;0.43;;;;;;;-146.25;68.01;52118.81;2106425;28;20885;-70
2023/05/20 01:09:07;;;;;;;3.00;0.70;;;;;;;-146.25;67.72;52096.50;2105863;28;30407;-70
2023/05/20 01:10:10;;;;;;;4.30;0.80;;;;;;;-146.25;67.41;52058.00;2109111;28;20567;-70
2023/05/20 01:11:25;;;;;;;1.83;0.60;;;;;;;-146.25;67.29;52118.81;2106086;28;20903;-70
2023/05/20 01:12:33;;;;;;;3.83;0.68;;;;;;;-146.25;67.07;52104.63;2096624;28;30095;-70
2023/05/20 01:13:48;;;;;;;3.75;0.68;;;;;;;-146.25;66.58;52076.22;2091773;28;20779;-70
2023/05/20 01:15:11;;;;;;;4.38;0.68;;;;;;;-146.25;65.75;52100.56;2100084;28;23922;-70
2023/05/20 01:16:17;;;;;;;2.42;0.60;;;;;;;-146.25;65.68;52080.28;2106352;28;21090;-71
2023/05/20 01:17:19;;;;;;;1.42;0.43;;;;;;;-146.25;65.22;52066.09;2096549;28;27212;-71
2023/05/20 01:18:24;;;;;;;2.15;0.40;;;;;;;-146.25;65.03;52090.44;2088998;28;21211;-70
2023/05/20 01:19:37;;;;;;;3.83;0.52;;;;;;;-146.25;65.39;52096.50;2080578;28;20050;-71
2023/05/20 01:20:41;;;;;;;3.53;0.63;;;;;;;-146.25;64.85;52084.34;2092122;28;29368;-71
2023/05/20 01:21:45;;;;;;;2.78;0.50;;;;;;;-146.25;65.07;52090.44;2096287;28;27106;-70
2023/05/20 01:22:56;;;;;;;2.72;0.55;;;;;;;-146.25;64.61;52094.47;2089131;28;22479;-71
2023/05/20 01:24:00;;;;;;;2.47;0.55;;;;;;;-146.25;64.51;52126.91;2099397;28;20957;-71
2023/05/20 01:25:03;;;;;;;1.60;0.45;;;;;;;-146.25;64.73;52110.69;2104719;28;29547;-71
2023/05/20 01:26:05;;;;;;;3.63;0.60;;;;;;;-146.25;64.20;52082.31;2088156;28;21032;-71
2023/05/20 01:27:10;;;;;;;2.92;0.45;;;;;;;-146.25;63.84;52122.88;2089305;28;20048;-70
2023/05/20 01:28:16;;;;;;;2.17;0.43;;;;;;;-146.25;63.49;52135.03;2106152;28;20598;-70
2023/05/20 01:29:18;;;;;;;1.42;0.47;;;;;;;-146.25;63.86;52080.28;2096814;28;26844;-70
2023/05/20 01:30:21;;;;;;;2.53;0.60;;;;;;;-146.25;63.99;52106.66;2096713;28;27010;-71
2023/05/20 01:31:28;;;;;;;4.55;0.57;;;;;;;-146.25;63.43;52088.41;2087833;28;27431;-69
2023/05/20 01:32:47;;;;;;;3.30;0.40;;;;;;;-146.25;63.63;52104.63;2091054;28;20042;-71
2023/05/20 01:33:55;;;;;;;2.90;0.47;;;;;;;-146.25;63.42;52096.50;2096897;28;26425;-71
2023/05/20 01:34:58;;;;;;;1.17;0.47;;;;;;;-146.25;63.78;52074.22;2090177;28;33405;-71
2023/05/20 01:36:01;;;;;;;1.67;0.50;;;;;;;-146.25;64.04;52096.50;2080550;28;32848;-70
2023/05/20 01:37:05;;;;;;;2.30;0.55;;;;;;;-146.25;63.72;52100.56;2081107;28;30251;-71
2023/05/20 01:38:07;;;;;;;1.42;0.40;;;;;;;-146.25;63.82;52068.13;2088390;28;31465;-71
2023/05/20 01:39:09;;;;;;;2.13;0.45;;;;;;;-146.25;63.86;52076.22;2088884;28;21021;-71
2023/05/20 01:40:14;;;;;;;2.33;0.50;;;;;;;-146.25;63.75;52088.41;2096521;28;27322;-71
2023/05/20 01:41:22;;;;;;;3.63;0.60;;;;;;;-146.25;63.55;52108.66;2088524;28;20045;-71
2023/05/20 01:42:26;;;;;;;1.98;0.80;;;;;;;-146.25;63.70;52096.50;2088449;28;32124;-70
2023/05/20 01:43:32;;;;;;;2.72;0.55;;;;;;;-146.25;63.14;52092.44;2089072;28;20929;-71
2023/05/20 01:44:34;;;;;;;3.22;0.70;;;;;;;-146.25;63.08;52088.41;2080611;28;20160;-71
2023/05/20 01:45:38;;;;;;;3.35;0.57;;;;;;;-146.25;63.15;52118.81;2081251;28;20037;-69
2023/05/20 01:46:40;;;;;;;1.10;0.40;;;;;;;-146.25;62.98;52078.25;2088257;28;20038;-71
2023/05/20 01:47:44;;;;;;;2.20;0.57;;;;;;;-146.25;62.58;52092.44;2088482;28;20038;-72
2023/05/20 01:48:46;;;;;;;2.03;0.40;;;;;;;-146.25;62.06;52104.63;2088685;28;20041;-70
2023/05/20 01:49:48;;;;;;;1.95;0.45;;;;;;;-146.25;62.45;52096.50;2097077;28;23679;-70
2023/05/20 01:50:52;;;;;;;1.67;0.52;;;;;;;-146.25;61.74;52092.44;2105083;28;28291;-70
2023/05/20 01:51:55;;;;;;;1.77;0.50;;;;;;;-146.25;61.29;52116.78;2105375;28;28662;-70
2023/05/20 01:52:56;;;;;;;4.15;0.52;;;;;;;-146.25;61.44;52080.28;2095857;28;27368;-71
2023/05/20 01:53:59;;;;;;;2.20;0.40;;;;;;;-146.25;60.94;52106.66;2088693;28;20104;-70
2023/05/20 01:55:00;;;;;;;3.50;0.40;;;;;;;-146.25;60.41;52137.06;2096579;28;20171;-70
2023/05/20 01:56:05;;;;;;;2.15;0.40;;;;;;;-146.25;60.03;52102.59;2097213;28;20037;-70
2023/05/20 01:57:06;;;;;;;3.10;0.50;;;;;;;-146.25;59.42;52082.31;2096967;28;20075;-70
2023/05/20 01:58:08;;;;;;;3.72;0.50;;;;;;;-146.25;59.33;52076.22;2097244;28;20892;-70
2023/05/20 01:59:10;;;;;;;4.47;0.50;;;;;;;-146.25;59.58;52141.13;2088568;28;20122;-70
2023/05/20 02:00:13;;;;;;;1.38;0.32;;;;;;;-146.25;59.44;52102.59;2088270;28;20053;-71
2023/05/20 02:01:15;;;;;;;1.90;0.45;;;;;;;-146.25;58.60;52120.84;2087852;28;43040;-71
2023/05/20 02:02:17;;;;;;;2.10;0.30;;;;;;;-146.25;58.23;52124.91;2096378;28;20140;-70
2023/05/20 02:03:19;;;;;;;0.80;0.30;;;;;;;-146.25;57.83;52116.78;2096184;28;26303;-70
2023/05/20 02:04:21;;;;;;;2.53;0.40;;;;;;;-146.25;57.80;52084.34;2105177;28;21512;-69
2023/05/20 02:05:23;;;;;;;1.73;0.40;;;;;;;-146.25;57.65;52100.56;2096311;28;20175;-71
2023/05/20 02:06:25;;;;;;;3.38;0.35;;;;;;;-146.25;57.21;52096.50;2088037;28;24758;-71
2023/05/20 02:07:28;;;;;;;1.83;0.38;;;;;;;-146.25;57.50;52078.25;2088511;28;20152;-70
2023/05/20 02:08:30;;;;;;;1.10;0.30;;;;;;;-146.25;57.53;52080.28;2088325;28;20042;-70
2023/05/20 02:09:36;;;;;;;1.63;0.40;;;;;;;-146.25;57.64;52102.59;2088374;28;20055;-70
2023/05/20 02:10:38;;;;;;;0.95;0.30;;;;;;;-146.25;57.72;52092.44;2088446;28;29630;-70
2023/05/20 02:11:40;;;;;;;2.55;0.38;;;;;;;-146.25;57.22;52139.09;2088404;28;20875;-71
2023/05/20 02:12:46;;;;;;;1.52;0.40;;;;;;;-146.25;56.95;52114.75;2096544;28;27764;-71
2023/05/20 02:13:50;;;;;;;2.13;0.40;;;;;;;-146.25;56.98;52108.66;2088256;28;21012;-71
2023/05/20 02:14:51;;;;;;;1.40;0.30;;;;;;;-146.25;57.22;52064.06;2087829;28;20044;-70
2023/05/20 02:15:57;;;;;;;1.58;0.40;;;;;;;-146.25;57.42;52060.00;2088591;28;20160;-72
2023/05/20 02:17:02;;;;;;;4.60;0.40;;;;;;;-146.25;57.00;52090.44;2088813;28;20048;-70
2023/05/20 02:18:07;;;;;;;2.72;0.40;;;;;;;-146.25;57.25;52102.59;2097472;28;20896;-71
2023/05/20 02:19:11;;;;;;;2.80;0.50;;;;;;;-146.25;57.41;52110.69;2096691;28;20238;-71
2023/05/20 02:20:13;;;;;;;1.10;0.30;;;;;;;-146.25;57.12;52092.44;2080298;28;30444;-71
2023/05/20 02:21:15;;;;;;;1.50;0.50;;;;;;;-146.25;57.34;52084.34;2079907;28;31593;-70
2023/05/20 02:22:17;;;;;;;1.05;0.40;;;;;;;-146.25;57.35;52128.94;2096681;28;21729;-71
2023/05/20 02:23:19;;;;;;;2.10;0.40;;;;;;;-146.25;57.49;52112.72;2096269;28;27665;-71
2023/05/20 02:24:21;;;;;;;1.50;0.30;;;;;;;-146.25;57.82;52135.03;2096840;28;26767;-71
2023/05/20 02:25:22;;;;;;;1.58;0.30;;;;;;;-146.25;57.53;52108.66;2105355;28;20306;-71
2023/05/20 02:26:24;;;;;;;2.22;0.30;;;;;;;-146.25;57.53;52137.06;2096742;28;20025;-71
2023/05/20 02:27:28;;;;;;;2.45;0.45;;;;;;;-146.25;57.56;52096.50;2088032;28;20073;-71
2023/05/20 02:28:29;;;;;;;1.95;0.30;;;;;;;-146.25;57.24;52072.19;2088406;28;20254;-70
2023/05/20 02:29:34;;;;;;;1.13;0.30;;;;;;;-146.25;57.53;52112.72;2096535;28;26061;-71
2023/05/20 02:30:39;;;;;;;5.07;0.40;;;;;;;-146.25;57.17;52078.25;2096421;28;20160;-70
2023/05/20 02:31:40;;;;;;;1.92;0.40;;;;;;;-146.25;57.54;52080.28;2087890;28;27097;-70
2023/05/20 02:32:42;;;;;;;2.55;0.40;;;;;;;-146.25;57.67;52096.50;2096633;28;20037;-71
2023/05/20 02:33:45;;;;;;;1.33;0.30;;;;;;;-146.25;57.51;52106.66;2104957;28;20917;-70
2023/05/20 02:34:47;;;;;;;0.90;0.63;;;;;;;-146.25;57.53;52084.34;2096308;28;20040;-70
2023/05/20 02:35:49;;;;;;;1.63;0.40;;;;;;;-146.25;57.19;52116.78;2096598;28;26376;-70
2023/05/20 02:36:51;;;;;;;0.90;0.30;;;;;;;-146.25;57.46;52153.28;2104559;28;20745;-70
2023/05/20 02:37:53;;;;;;;3.25;0.40;;;;;;;-146.25;57.35;52104.63;2096452;28;20052;-69
2023/05/20 02:38:55;;;;;;;2.33;0.40;;;;;;;-146.25;57.63;52128.94;2088050;28;20034;-70
2023/05/20 02:39:57;;;;;;;1.48;0.38;;;;;;;-146.25;57.78;52082.31;2088368;28;21936;-70
2023/05/20 02:40:59;;;;;;;2.80;0.50;;;;;;;-146.25;57.11;52104.63;2096148;28;25891;-70
2023/05/20 02:42:00;;;;;;;1.77;0.30;;;;;;;-146.25;57.66;52130.97;2104730;28;26085;-70
2023/05/20 02:43:02;;;;;;;4.03;0.50;;;;;;;-146.25;57.67;52104.63;2095922;28;20048;-70
2023/05/20 02:44:04;;;;;;;1.50;0.30;;;;;;;-146.25;57.67;52102.59;2087975;28;20949;-70
2023/05/20 02:45:07;;;;;;;2.13;0.32;;;;;;;-146.25;57.99;52100.56;2087977;28;20080;-70
2023/05/20 02:46:09;;;;;;;1.55;0.43;;;;;;;-146.25;58.03;52062.03;2096791;28;20155;-70
2023/05/20 02:47:10;;;;;;;2.53;0.50;;;;;;;-146.25;58.05;52096.50;2096275;28;20086;-70
2023/05/20 02:48:12;;;;;;;0.95;0.30;;;;;;;-146.25;58.16;52116.78;2088002;28;20956;-70
2023/05/20 02:49:18;;;;;;;1.88;0.30;;;;;;;-146.25;58.41;52096.50;2096449;28;25418;-70
2023/05/20 02:50:20;;;;;;;1.52;0.35;;;;;;;-146.25;58.31;52068.13;2105635;28;20837;-70
2023/05/20 02:51:24;;;;;;;1.35;0.28;;;;;;;-146.25;58.89;52098.53;2104813;28;24533;-70
2023/05/20 02:52:28;;;;;;;1.23;0.30;;;;;;;-146.25;59.05;52088.41;2096557;28;20143;-70
2023/05/20 02:53:30;;;;;;;1.20;0.30;;;;;;;-146.25;59.17;52120.84;2079885;28;20038;-71
2023/05/20 02:54:32;;;;;;;1.35;0.43;;;;;;;-146.25;59.14;52094.47;2087906;28;20143;-71
2023/05/20 02:55:35;;;;;;;1.20;0.25;;;;;;;-146.25;59.51;52090.44;2079871;28;20153;-70
2023/05/20 02:56:37;;;;;;;2.25;0.40;;;;;;;-146.25;59.67;52090.44;2071863;28;20296;-70
2023/05/20 02:57:39;;;;;;;3.63;0.30;;;;;;;-146.25;59.93;52094.47;2079971;28;25193;-69
2023/05/20 02:58:43;;;;;;;2.10;0.30;;;;;;;-146.25;59.94;52120.84;2079904;28;20077;-72
2023/05/20 02:59:44;;;;;;;2.20;0.50;;;;;;;-146.25;60.46;52133.00;2079752;28;26105;-71
2023/05/20 03:00:46;;;;;;;1.60;0.32;;;;;;;-146.25;60.22;52098.53;2088052;28;20026;-71
2023/05/20 03:01:48;;;;;;;1.75;0.40;;;;;;;-146.25;60.66;52112.72;2087415;28;20139;-71
2023/05/20 03:02:50;;;;;;;1.23;0.30;;;;;;;-146.25;60.65;52080.28;2088475;28;20053;-70
2023/05/20 03:03:52;;;;;;;1.85;0.60;;;;;;;-146.25;61.13;52116.78;2096159;28;20871;-71
2023/05/20 03:04:56;;;;;;;2.72;0.50;;;;;;;-146.25;61.60;52092.44;2088166;28;20053;-71
2023/05/20 03:06:01;;;;;;;2.55;0.40;;;;;;;-146.25;61.29;52092.44;2088726;28;20037;-71
2023/05/20 03:07:06;;;;;;;3.47;0.45;;;;;;;-146.25;61.68;52094.47;2088135;28;20045;-71
2023/05/20 03:08:09;;;;;;;1.65;0.43;;;;;;;-146.25;61.97;52112.72;2088131;28;26826;-71
2023/05/20 03:09:11;;;;;;;1.95;0.35;;;;;;;-146.25;61.76;52098.53;2087466;28;30982;-71
2023/05/20 03:10:14;;;;;;;1.52;0.35;;;;;;;-146.25;61.61;52100.56;2088181;28;20908;-71
2023/05/20 03:11:15;;;;;;;1.60;0.40;;;;;;;-146.25;62.13;52104.63;2087835;28;22641;-71
2023/05/20 03:12:17;;;;;;;3.40;0.55;;;;;;;-146.25;62.93;52116.78;2079444;28;29348;-71
2023/05/20 03:13:19;;;;;;;1.27;0.40;;;;;;;-146.25;62.85;52092.44;2079849;28;20054;-71
2023/05/20 03:14:21;;;;;;;2.38;0.50;;;;;;;-146.25;62.89;52098.53;2088003;28;20316;-71
2023/05/20 03:15:23;;;;;;;1.55;0.43;;;;;;;-146.25;63.57;52100.56;2097040;28;20238;-71
2023/05/20 03:16:26;;;;;;;1.15;0.40;;;;;;;-146.25;63.46;52102.59;2088038;28;20130;-71
2023/05/20 03:17:28;;;;;;;2.05;0.40;;;;;;;-146.25;63.22;52126.91;2088579;28;23220;-71
2023/05/20 03:18:30;;;;;;;2.60;0.55;;;;;;;-146.25;63.75;52076.22;2079811;28;20057;-71
2023/05/20 03:19:33;;;;;;;1.08;0.40;;;;;;;-146.25;64.22;52068.13;2071989;28;20102;-71
2023/05/20 03:20:38;;;;;;;3.30;0.63;;;;;;;-146.25;63.87;52114.75;2079765;28;20042;-71
2023/05/20 03:21:43;;;;;;;1.25;0.60;;;;;;;-146.25;63.51;52104.63;2080319;28;20948;-71
2023/05/20 03:22:45;;;;;;;1.95;0.32;;;;;;;-146.25;64.65;52108.66;2090556;28;20171;-71
2023/05/20 03:23:47;;;;;;;1.13;0.50;;;;;;;-146.25;63.78;52082.31;2096011;28;20892;-71
2023/05/20 03:24:51;;;;;;;1.67;0.43;;;;;;;-146.25;64.42;52149.22;2080244;28;20099;-71
2023/05/20 03:25:53;;;;;;;1.23;0.40;;;;;;;-146.25;64.26;52090.44;2079422;28;20100;-71
2023/05/20 03:26:55;;;;;;;1.65;0.43;;;;;;;-146.25;64.43;52108.66;2079419;28;33311;-71
2023/05/20 03:27:59;;;;;;;1.80;0.55;;;;;;;-146.25;64.78;52078.25;2079667;28;23108;-71
2023/05/20 03:29:01;;;;;;;2.83;0.50;;;;;;;-146.25;65.25;52116.78;2080183;28;20050;-71
2023/05/20 03:30:04;;;;;;;2.63;0.60;;;;;;;-146.25;65.60;52094.47;2079854;28;20089;-71
2023/05/20 03:31:06;;;;;;;2.40;0.50;;;;;;;-146.25;65.63;52096.50;2079759;28;20050;-70
2023/05/20 03:32:08;;;;;;;2.42;0.60;;;;;;;-146.25;65.65;52118.81;2079715;28;20064;-71
2023/05/20 03:33:11;;;;;;;1.50;0.60;;;;;;;-146.25;65.22;52068.13;2079582;28;20135;-70
2023/05/20 03:34:13;;;;;;;3.53;0.30;;;;;;;-146.25;65.34;52128.94;2071296;28;20042;-71
2023/05/20 03:35:15;;;;;;;2.88;0.60;;;;;;;-146.25;65.83;52106.66;2088478;28;20034;-71
2023/05/20 03:36:17;;;;;;;2.50;0.50;;;;;;;-146.25;65.42;52112.72;2095879;28;20156;-71
2023/05/20 03:37:19;;;;;;;2.15;0.50;;;;;;;-146.25;65.66;52112.72;2079959;28;20112;-71
2023/05/20 03:38:21;;;;;;;2.33;0.50;;;;;;;-146.25;65.18;52116.78;2079749;28;20080;-71
2023/05/20 03:39:22;;;;;;;2.47;0.60;;;;;;;-146.25;65.36;52090.44;2071232;28;20180;-71
2023/05/20 03:40:24;;;;;;;1.17;0.40;;;;;;;-146.25;65.42;52108.66;2079822;28;22629;-71
2023/05/20 03:41:28;;;;;;;1.20;0.32;;;;;;;-146.25;65.58;52096.50;2087660;28;21033;-71
2023/05/20 03:42:34;;;;;;;1.92;0.40;;;;;;;-146.25;65.98;52086.38;2071742;28;20054;-71
2023/05/20 03:43:37;;;;;;;3.38;0.75;;;;;;;-146.25;66.02;52084.34;2072189;28;20054;-71
2023/05/20 03:44:39;;;;;;;1.40;0.40;;;;;;;-146.25;66.04;52133.00;2080445;28;20167;-71
2023/05/20 03:45:41;;;;;;;4.45;0.50;;;;;;;-146.25;66.14;52092.44;2095926;28;20138;-71
2023/05/20 03:46:43;;;;;;;4.38;0.70;;;;;;;-146.25;65.41;52100.56;2087615;28;20038;-71
2023/05/20 03:47:45;;;;;;;1.95;0.40;;;;;;;-146.25;65.91;52096.50;2079528;28;20050;-71
2023/05/20 03:48:47;;;;;;;2.75;0.70;;;;;;;-146.25;65.49;52110.69;2080119;28;20501;-71
2023/05/20 03:49:49;;;;;;;1.90;0.40;;;;;;;-146.25;64.78;52139.09;2090988;28;20699;-71
2023/05/20 03:50:53;;;;;;;2.25;0.40;;;;;;;-146.25;64.85;52128.94;2097176;28;20041;-71
2023/05/20 03:51:57;;;;;;;1.20;0.40;;;;;;;-146.25;65.05;52098.53;2097076;28;20068;-71
2023/05/20 03:52:59;;;;;;;1.45;0.50;;;;;;;-146.25;65.09;52094.47;2096390;28;27887;-71
2023/05/20 03:54:02;;;;;;;3.65;0.43;;;;;;;-146.25;65.52;52114.75;2089300;28;20490;-71
2023/05/20 03:55:05;;;;;;;2.03;0.50;;;;;;;-146.25;64.98;52128.94;2097130;28;20044;-71
2023/05/20 03:56:07;;;;;;;2.80;0.50;;;;;;;-146.25;65.19;52112.72;2089461;28;20807;-71
2023/05/20 03:57:11;;;;;;;2.55;0.50;;;;;;;-146.25;65.23;52108.66;2090026;28;20034;-71
2023/05/20 03:58:14;;;;;;;3.33;0.50;;;;;;;-146.25;64.57;52161.38;2089325;28;20046;-71
2023/05/20 03:59:16;;;;;;;1.98;0.55;;;;;;;-146.25;64.39;52084.34;2097604;28;20231;-71
2023/05/20 04:00:19;;;;;;;1.13;0.40;;;;;;;-146.25;64.60;52110.69;2097541;28;20912;-71
2023/05/20 04:01:24;;;;;;;1.25;0.52;;;;;;;-146.25;63.59;52118.81;2089264;28;20177;-71
2023/05/20 04:02:26;;;;;;;1.65;0.47;;;;;;;-146.25;63.12;52104.63;2089437;28;20037;-71
2023/05/20 04:03:28;;;;;;;1.05;0.28;;;;;;;-146.25;61.94;52092.44;2080836;28;29323;-70
2023/05/20 04:04:31;;;;;;;2.55;0.40;;;;;;;-146.25;61.65;52116.78;2089455;28;20037;-71
2023/05/20 04:05:35;;;;;;;1.05;0.38;;;;;;;-146.25;61.10;52128.94;2097466;28;20954;-70
2023/05/20 04:06:39;;;;;;;1.73;0.40;;;;;;;-146.25;60.65;52118.81;2097890;28;20045;-71
2023/05/20 04:07:41;;;;;;;2.47;0.50;;;;;;;-146.25;59.50;52143.13;2097397;28;20049;-71
2023/05/20 04:08:45;;;;;;;2.78;0.32;;;;;;;-146.25;58.36;52110.69;2089142;28;20234;-71
2023/05/20 04:09:47;;;;;;;1.95;0.40;;;;;;;-146.25;57.56;52139.09;2097537;28;24744;-71
2023/05/20 04:10:49;;;;;;;1.90;0.30;;;;;;;-146.25;56.95;52108.66;2097636;28;28807;-71
2023/05/20 04:11:51;;;;;;;1.40;0.40;;;;;;;-146.25;56.06;52116.78;2096831;28;20733;-71
2023/05/20 04:12:52;;;;;;;1.63;0.80;;;;;;;-146.25;55.68;52110.69;2097159;28;29106;-71
2023/05/20 04:13:55;;;;;;;5.53;0.65;;;;;;;-146.25;54.34;52128.94;2097781;28;20048;-71
2023/05/20 04:15:00;;;;;;;1.33;0.40;;;;;;;-146.25;54.89;52126.91;2097307;28;20045;-71
2023/05/20 04:16:05;;;;;;;1.40;0.43;;;;;;;-146.25;53.75;52100.56;2097327;28;20812;-71
2023/05/20 04:17:06;;;;;;;1.95;0.40;;;;;;;-146.25;53.40;52173.56;2088849;28;22680;-71
2023/05/20 04:18:09;;;;;;;2.35;0.40;;;;;;;-146.25;52.76;52092.44;2097450;28;20957;-71
2023/05/20 04:19:11;;;;;;;1.50;0.50;;;;;;;-146.25;53.69;52114.75;2097440;28;20048;-71
2023/05/20 04:20:15;;;;;;;1.63;0.40;;;;;;;-146.25;52.54;52092.44;2105922;28;21175;-70
2023/05/20 04:21:18;;;;;;;1.58;0.43;;;;;;;-146.25;53.32;52147.19;2097351;28;20092;-70
2023/05/20 04:22:20;;;;;;;2.55;0.43;;;;;;;-146.25;53.89;52060.00;2080946;28;20073;-71
2023/05/20 04:23:22;;;;;;;3.13;0.45;;;;;;;-146.25;53.86;52108.66;2089761;28;20981;-70
2023/05/20 04:24:26;;;;;;;1.55;0.30;;;;;;;-146.25;54.55;52094.47;2097298;28;20168;-71
2023/05/20 04:25:28;;;;;;;2.35;0.32;;;;;;;-146.25;54.79;52084.34;2089676;28;20164;-72
2023/05/20 04:26:30;;;;;;;1.42;0.40;;;;;;;-146.25;54.07;52106.66;2089019;28;20168;-71
2023/05/20 04:27:32;;;;;;;1.85;0.40;;;;;;;-146.25;54.57;52137.06;2088987;28;20046;-71
2023/05/20 04:28:37;;;;;;;1.92;0.50;;;;;;;-146.25;54.47;52118.81;2097565;28;20041;-71
2023/05/20 04:29:40;;;;;;;1.90;0.35;;;;;;;-146.25;54.96;52106.66;2097528;28;20037;-71
2023/05/20 04:30:45;;;;;;;1.38;0.30;;;;;;;-146.25;54.17;52157.34;2088841;28;20041;-71
2023/05/20 04:31:48;;;;;;;1.33;0.30;;;;;;;-146.25;54.20;52104.63;2089590;28;20950;-69
2023/05/20 04:32:50;;;;;;;1.10;0.38;;;;;;;-146.25;54.52;52139.09;2096850;28;20984;-71
2023/05/20 04:33:53;;;;;;;1.65;0.30;;;;;;;-146.25;54.46;52126.91;2081085;28;23131;-70
2023/05/20 04:34:56;;;;;;;1.75;0.20;;;;;;;-146.25;53.85;52088.41;2081681;28;20069;-71
2023/05/20 04:35:59;;;;;;;0.63;0.20;;;;;;;-146.25;53.77;52094.47;2097597;28;20044;-71
2023/05/20 04:37:01;;;;;;;3.45;0.40;;;;;;;-146.25;53.55;52135.03;2105398;28;20079;-71
2023/05/20 04:38:03;;;;;;;0.88;0.30;;;;;;;-146.25;53.41;52090.44;2097273;28;20041;-71
2023/05/20 04:39:08;;;;;;;2.08;0.40;;;;;;;-146.25;52.04;52120.84;2080539;28;20107;-71
2023/05/20 04:40:11;;;;;;;1.17;0.30;;;;;;;-146.25;52.10;52106.66;2090131;28;21005;-70
2023/05/20 04:41:14;;;;;;;1.90;0.40;;;;;;;-146.25;51.99;52108.66;2088226;28;20042;-71
2023/05/20 04:42:20;;;;;;;1.95;0.30;;;;;;;-146.25;51.99;52141.13;2082097;28;20049;-71
2023/05/20 04:43:23;;;;;;;2.03;0.50;;;;;;;-146.25;50.95;52120.84;2088695;28;20927;-70
2023/05/20 04:44:25;;;;;;;1.58;0.32;;;;;;;-146.25;50.38;52124.91;2089238;28;21891;-70
2023/05/20 04:45:29;;;;;;;2.88;0.60;;;;;;;-146.25;50.56;52082.31;2088739;28;20042;-72
2023/05/20 04:46:32;;;;;;;2.78;0.50;;;;;;;-146.25;50.24;52133.00;2097660;28;20257;-70
2023/05/20 04:47:37;;;;;;;2.58;0.93;;;;;;;-146.25;49.80;52100.56;2096244;28;27703;-71
2023/05/20 04:48:39;;;;;;;1.20;0.30;;;;;;;-146.25;49.68;52118.81;2081421;28;20057;-71
2023/05/20 04:49:41;;;;;;;2.95;0.30;;;;;;;-146.25;48.87;52120.84;2089134;28;30381;-71